createdAt,value
2019-05-30T00:01:58.584Z,100845.85
2019-05-30T00:04:25.986Z,100837.50
2019-05-30T00:06:54.450Z,100835.26
2019-05-30T00:09:23.509Z,100826.16
2019-05-30T00:11:51.842Z,100826.19
2019-05-30T00:14:20.318Z,100824.36
2019-05-30T00:16:47.915Z,100829.19
2019-05-30T00:19:15.363Z,100825.50
2019-05-30T00:21:43.212Z,100824.24
2019-05-30T00:24:10.923Z,100823.80
2019-05-30T00:26:39.050Z,100816.98
2019-05-30T00:29:06.731Z,100820.77
2019-05-30T00:31:34.843Z,100823.80
2019-05-30T00:34:05.958Z,100824.34
2019-05-30T00:36:33.582Z,100819.06
2019-05-30T00:39:01.885Z,100826.83
2019-05-30T00:41:29.830Z,100822.36
2019-05-30T00:43:57.882Z,100823.20
2019-05-30T00:46:25.802Z,100819.47
2019-05-30T00:48:53.193Z,100821.47
2019-05-30T00:51:20.987Z,100817.80
2019-05-30T00:53:48.251Z,100817.52
2019-05-30T00:56:15.671Z,100816.77
2019-05-30T00:58:43.127Z,100812.34
2019-05-30T01:01:11.254Z,100819.30
2019-05-30T01:03:38.683Z,100815.30
2019-05-30T01:06:07.234Z,100807.68
2019-05-30T01:08:34.984Z,100810.42
2019-05-30T01:11:03.184Z,100813.39
2019-05-30T01:13:30.667Z,100812.98
2019-05-30T01:15:58.958Z,100808.80
2019-05-30T01:18:27.619Z,100805.75
2019-05-30T01:20:55.556Z,100807.36
2019-05-30T01:23:23.057Z,100804.98
2019-05-30T01:25:50.507Z,100802.95
2019-05-30T01:28:17.766Z,100802.31
2019-05-30T01:30:59.148Z,100798.77
2019-05-30T01:33:15.035Z,100793.20
2019-05-30T01:35:43.564Z,100802.08
2019-05-30T01:38:10.891Z,100807.95
2019-05-30T01:40:38.770Z,100802.23
2019-05-30T01:43:06.283Z,100802.27
2019-05-30T01:45:34.909Z,100807.77
2019-05-30T01:48:02.898Z,100800.78
2019-05-30T01:50:31.456Z,100799.39
2019-05-30T01:53:00.318Z,100794.02
2019-05-30T01:55:27.999Z,100796.02
2019-05-30T01:57:55.360Z,100798.70
2019-05-30T02:00:33.422Z,100798.53
2019-05-30T02:03:00.816Z,100793.16
2019-05-30T02:05:28.216Z,100788.46
2019-05-30T02:07:56.043Z,100781.51
2019-05-30T02:10:23.704Z,100789.14
2019-05-30T02:12:51.067Z,100788.52
2019-05-30T02:15:18.932Z,100789.16
2019-05-30T02:17:46.803Z,100789.14
2019-05-30T02:20:14.663Z,100783.34
2019-05-30T02:22:42.327Z,100786.34
2019-05-30T02:25:11.831Z,100786.22
2019-05-30T02:27:39.833Z,100790.01
2019-05-30T02:30:12.622Z,100792.77
2019-05-30T02:32:38.293Z,100787.33
2019-05-30T02:35:07.807Z,100784.69
2019-05-30T02:37:35.987Z,100784.28
2019-05-30T02:40:07.382Z,100786.96
2019-05-30T02:42:33.661Z,100793.47
2019-05-30T02:45:02.021Z,100795.78
2019-05-30T02:47:30.521Z,100792.69
2019-05-30T02:50:01.309Z,100806.27
2019-05-30T02:52:29.023Z,100802.47
2019-05-30T02:54:56.383Z,100793.77
2019-05-30T02:57:24.047Z,100800.45
2019-05-30T02:59:52.009Z,100800.52
2019-05-30T03:02:19.462Z,100800.85
2019-05-30T03:04:46.926Z,100803.49
2019-05-30T03:07:14.491Z,100799.81
2019-05-30T03:09:42.384Z,100805.97
2019-05-30T03:12:11.473Z,100802.40
2019-05-30T03:14:39.152Z,100802.98
2019-05-30T03:17:09.131Z,100808.47
2019-05-30T03:19:36.081Z,100806.09
2019-05-30T03:22:05.200Z,100802.59
2019-05-30T03:24:32.828Z,100804.88
2019-05-30T03:27:00.285Z,100799.94
2019-05-30T03:29:28.263Z,100799.90
2019-05-30T03:31:55.945Z,100800.49
2019-05-30T03:34:28.589Z,100802.47
2019-05-30T03:36:52.672Z,100802.12
2019-05-30T03:39:21.048Z,100804.09
2019-05-30T03:41:48.605Z,100804.33
2019-05-30T03:44:16.116Z,100810.86
2019-05-30T03:46:48.648Z,100807.75
2019-05-30T03:49:21.793Z,100814.56
2019-05-30T03:51:51.085Z,100804.69
2019-05-30T03:54:19.038Z,100812.33
2019-05-30T03:56:51.280Z,100805.27
2019-05-30T03:59:24.687Z,100811.38
2019-05-30T04:02:11.792Z,100807.44
2019-05-30T04:04:46.729Z,100811.78
2019-05-30T04:07:19.622Z,100809.00
2019-05-30T04:09:49.531Z,100808.05
2019-05-30T04:12:27.941Z,100814.19
2019-05-30T04:15:00.295Z,100808.50
2019-05-30T04:17:28.700Z,100810.28
2019-05-30T04:19:56.253Z,100807.77
2019-05-30T04:22:23.613Z,100807.55
2019-05-30T04:24:51.353Z,100805.12
2019-05-30T04:27:18.872Z,100818.43
2019-05-30T04:29:46.189Z,100816.64
2019-05-30T04:32:14.399Z,100815.34
2019-05-30T04:34:42.438Z,100817.05
2019-05-30T04:37:10.641Z,100822.20
2019-05-30T04:39:38.372Z,100825.30
2019-05-30T04:42:05.830Z,100812.53
2019-05-30T04:44:33.622Z,100814.56
2019-05-30T04:47:00.957Z,100812.22
2019-05-30T04:49:28.306Z,100820.87
2019-05-30T04:51:55.881Z,100831.41
2019-05-30T04:54:23.803Z,100827.04
2019-05-30T04:56:51.248Z,100826.19
2019-05-30T04:59:19.847Z,100820.05
2019-05-30T05:01:47.841Z,100820.77
2019-05-30T05:04:17.554Z,100834.95
2019-05-30T05:06:44.984Z,100835.50
2019-05-30T05:09:14.010Z,100825.09
2019-05-30T05:11:41.971Z,100832.31
2019-05-30T05:14:09.809Z,100834.61
2019-05-30T05:16:37.301Z,100838.78
2019-05-30T05:19:04.863Z,100830.59
2019-05-30T05:21:33.437Z,100837.77
2019-05-30T05:24:01.310Z,100833.17
2019-05-30T05:26:29.069Z,100816.41
2019-05-30T05:28:56.745Z,100836.92
2019-05-30T05:31:26.253Z,100835.00
2019-05-30T05:33:57.323Z,100830.28
2019-05-30T05:36:25.252Z,100836.25
2019-05-30T05:38:52.723Z,100827.63
2019-05-30T05:41:20.265Z,100821.20
2019-05-30T05:43:48.361Z,100826.73
2019-05-30T05:46:16.417Z,100831.17
2019-05-30T05:48:44.077Z,100825.09
2019-05-30T05:51:11.653Z,100827.45
2019-05-30T05:53:39.517Z,100831.06
2019-05-30T05:56:06.980Z,100830.45
2019-05-30T05:58:34.338Z,100839.19
2019-05-30T06:01:01.787Z,100846.58
2019-05-30T06:03:29.141Z,100840.02
2019-05-30T06:05:56.599Z,100845.34
2019-05-30T06:08:24.069Z,100854.77
2019-05-30T06:10:52.133Z,100846.73
2019-05-30T06:13:20.769Z,100857.05
2019-05-30T06:15:48.269Z,100855.77
2019-05-30T06:18:15.830Z,100852.72
2019-05-30T06:20:43.774Z,100856.32
2019-05-30T06:23:11.152Z,100861.77
2019-05-30T06:25:38.606Z,100859.69
2019-05-30T06:28:06.069Z,100854.37
2019-05-30T06:30:36.811Z,100858.70
2019-05-30T06:33:04.875Z,100857.37
2019-05-30T06:35:32.235Z,100850.85
2019-05-30T06:37:59.646Z,100851.42
2019-05-30T06:40:30.933Z,100850.62
2019-05-30T06:42:59.107Z,100850.08
2019-05-30T06:45:26.849Z,100852.87
2019-05-30T06:47:54.333Z,100855.59
2019-05-30T06:50:22.581Z,100854.14
2019-05-30T06:52:50.163Z,100864.58
2019-05-30T06:55:18.382Z,100864.20
2019-05-30T06:57:45.770Z,100861.95
2019-05-30T07:00:14.314Z,100859.05
2019-05-30T07:02:41.676Z,100862.68
2019-05-30T07:05:10.731Z,100859.92
2019-05-30T07:07:40.672Z,100868.17
2019-05-30T07:10:09.227Z,100864.91
2019-05-30T07:12:36.590Z,100872.38
2019-05-30T07:15:05.566Z,100871.00
2019-05-30T07:17:33.635Z,100869.92
2019-05-30T07:20:01.511Z,100868.13
2019-05-30T07:22:29.733Z,100869.41
2019-05-30T07:24:57.150Z,100873.96
2019-05-30T07:27:26.100Z,100876.80
2019-05-30T07:29:53.813Z,100878.28
2019-05-30T07:32:21.175Z,100881.80
2019-05-30T07:34:48.623Z,100882.50
2019-05-30T07:37:17.234Z,100880.30
2019-05-30T07:39:45.007Z,100883.93
2019-05-30T07:42:12.426Z,100893.89
2019-05-30T07:44:40.088Z,100893.61
2019-05-30T07:47:07.559Z,100895.40
2019-05-30T07:49:36.130Z,100894.71
2019-05-30T07:52:04.206Z,100898.11
2019-05-30T07:54:31.536Z,100905.92
2019-05-30T07:56:58.931Z,100897.26
2019-05-30T07:59:26.470Z,100892.84
2019-05-30T08:01:54.447Z,100895.02
2019-05-30T08:04:22.502Z,100894.22
2019-05-30T08:06:56.523Z,100896.06
2019-05-30T08:09:24.158Z,100892.18
2019-05-30T08:11:52.092Z,100897.32
2019-05-30T08:14:19.417Z,100892.55
2019-05-30T08:16:46.699Z,100879.55
2019-05-30T08:19:14.650Z,100882.41
2019-05-30T08:21:41.982Z,100885.84
2019-05-30T08:24:09.415Z,100879.02
2019-05-30T08:26:36.766Z,100891.09
2019-05-30T08:29:04.264Z,100883.26
2019-05-30T08:31:32.488Z,100892.77
2019-05-30T08:33:59.991Z,100891.36
2019-05-30T08:36:30.875Z,100891.13
2019-05-30T08:38:58.398Z,100887.44
2019-05-30T08:41:25.854Z,100888.80
2019-05-30T08:43:53.208Z,100891.84
2019-05-30T08:46:21.574Z,100899.19
2019-05-30T08:48:49.855Z,100895.08
2019-05-30T08:51:17.703Z,100894.17
2019-05-30T08:53:45.297Z,100894.86
2019-05-30T08:56:12.875Z,100893.56
2019-05-30T08:58:40.937Z,100888.03
2019-05-30T09:01:08.786Z,100889.33
2019-05-30T09:03:36.144Z,100889.30
2019-05-30T09:06:04.549Z,100889.09
2019-05-30T09:08:32.135Z,100895.44
2019-05-30T09:11:02.513Z,100886.45
2019-05-30T09:13:29.939Z,100877.41
2019-05-30T09:15:57.376Z,100882.30
2019-05-30T09:18:24.671Z,100885.00
2019-05-30T09:20:52.176Z,100883.90
2019-05-30T09:23:19.593Z,100886.77
2019-05-30T09:25:49.416Z,100879.36
2019-05-30T09:28:16.828Z,100882.33
2019-05-30T09:30:44.804Z,100882.14
2019-05-30T09:33:14.331Z,100879.67
2019-05-30T09:35:42.933Z,100885.38
2019-05-30T09:38:12.020Z,100883.59
2019-05-30T09:40:40.836Z,100886.73
2019-05-30T09:43:08.880Z,100886.87
2019-05-30T09:45:36.332Z,100890.00
2019-05-30T09:48:03.916Z,100890.81
2019-05-30T09:50:31.247Z,100902.16
2019-05-30T09:52:58.904Z,100892.55
2019-05-30T09:55:27.926Z,100900.31
2019-05-30T09:57:55.437Z,100902.52
2019-05-30T10:00:23.329Z,100905.83
2019-05-30T10:02:52.492Z,100907.23
2019-05-30T10:05:30.034Z,100908.42
2019-05-30T10:07:59.800Z,100908.14
2019-05-30T10:10:35.725Z,100916.54
2019-05-30T10:13:04.368Z,100909.63
2019-05-30T10:15:31.748Z,100912.19
2019-05-30T10:17:59.285Z,100918.84
2019-05-30T10:20:30.499Z,100918.65
2019-05-30T10:22:57.895Z,100915.67
2019-05-30T10:25:25.561Z,100924.27
2019-05-30T10:27:54.645Z,100921.13
2019-05-30T10:30:23.712Z,100921.00
2019-05-30T10:32:52.006Z,100914.52
2019-05-30T10:35:20.180Z,100911.28
2019-05-30T10:37:48.911Z,100906.34
2019-05-30T10:40:17.269Z,100909.86
2019-05-30T10:42:47.300Z,100906.56
2019-05-30T10:45:15.920Z,100909.98
2019-05-30T10:47:47.535Z,100909.44
2019-05-30T10:50:17.173Z,100917.69
2019-05-30T10:52:49.441Z,100921.97
2019-05-30T10:55:19.520Z,100918.55
2019-05-30T10:57:50.053Z,100918.89
2019-05-30T11:00:20.596Z,100932.23
2019-05-30T11:02:49.968Z,100923.94
2019-05-30T11:05:22.754Z,100935.59
2019-05-30T11:08:06.312Z,100937.42
2019-05-30T11:10:39.484Z,100930.51
2019-05-30T11:13:11.834Z,100934.08
2019-05-30T11:15:39.918Z,100937.69
2019-05-30T11:18:07.473Z,100930.05
2019-05-30T11:20:37.015Z,100932.89
2019-05-30T11:23:04.649Z,100931.19
2019-05-30T11:25:35.165Z,100927.62
2019-05-30T11:28:05.681Z,100931.67
2019-05-30T11:30:36.938Z,100932.98
2019-05-30T11:33:11.428Z,100923.80
2019-05-30T11:35:39.524Z,100935.84
2019-05-30T11:38:08.473Z,100939.91
2019-05-30T11:40:39.783Z,100942.05
2019-05-30T11:43:11.443Z,100938.94
2019-05-30T11:45:40.816Z,100947.36
2019-05-30T11:48:08.838Z,100946.78
2019-05-30T11:50:38.495Z,100947.19
2019-05-30T11:53:08.030Z,100940.85
2019-05-30T11:55:37.543Z,100945.60
2019-05-30T11:58:04.887Z,100951.44
2019-05-30T12:00:33.138Z,100953.20
2019-05-30T12:03:00.710Z,100956.40
2019-05-30T12:05:34.029Z,100956.55
2019-05-30T12:08:01.477Z,100956.42
2019-05-30T12:10:30.243Z,100956.14
2019-05-30T12:12:57.753Z,100959.17
2019-05-30T12:15:26.171Z,100957.81
2019-05-30T12:17:53.857Z,100961.39
2019-05-30T12:20:21.504Z,100961.75
2019-05-30T12:22:51.734Z,100962.28
2019-05-30T12:25:19.616Z,100958.09
2019-05-30T12:27:46.982Z,100955.41
2019-05-30T12:30:15.145Z,100956.98
2019-05-30T12:32:43.162Z,100956.16
2019-05-30T12:35:13.960Z,100955.23
2019-05-30T12:37:54.229Z,100957.36
2019-05-30T12:40:11.708Z,100961.26
2019-05-30T12:42:39.529Z,100954.74
2019-05-30T12:45:07.638Z,100958.30
2019-05-30T12:47:36.118Z,100964.34
2019-05-30T12:50:04.603Z,100965.07
2019-05-30T12:52:46.550Z,100972.53
2019-05-30T12:55:14.964Z,100973.75
2019-05-30T12:57:42.515Z,100968.05
2019-05-30T13:00:17.509Z,100979.22
2019-05-30T13:02:43.089Z,100970.11
2019-05-30T13:05:10.670Z,100969.40
2019-05-30T13:07:38.276Z,100961.92
2019-05-30T13:10:06.009Z,100972.17
2019-05-30T13:12:33.454Z,100972.42
2019-05-30T13:15:01.940Z,100973.56
2019-05-30T13:17:29.531Z,100977.98
2019-05-30T13:19:57.051Z,100979.61
2019-05-30T13:22:24.487Z,100980.60
2019-05-30T13:24:53.405Z,100973.19
2019-05-30T13:27:20.714Z,100979.55
2019-05-30T13:29:48.186Z,100981.53
2019-05-30T13:32:15.537Z,100985.30
2019-05-30T13:34:43.007Z,100990.55
2019-05-30T13:37:10.411Z,100993.39
2019-05-30T13:39:37.706Z,100996.02
2019-05-30T13:42:05.964Z,100989.63
2019-05-30T13:44:34.022Z,100993.09
2019-05-30T13:47:02.436Z,100987.66
2019-05-30T13:49:30.534Z,100990.72
2019-05-30T13:51:58.934Z,100986.66
2019-05-30T13:54:27.770Z,100992.77
2019-05-30T13:56:55.643Z,100989.38
2019-05-30T13:59:23.103Z,100989.27
2019-05-30T14:01:50.460Z,100989.70
2019-05-30T14:04:17.885Z,100983.84
2019-05-30T14:06:45.783Z,100988.59
2019-05-30T14:09:13.546Z,100984.59
2019-05-30T14:11:40.927Z,100985.69
2019-05-30T14:14:08.923Z,100988.95
2019-05-30T14:16:36.835Z,100990.70
2019-05-30T14:19:05.354Z,100994.33
2019-05-30T14:21:32.850Z,100997.38
2019-05-30T14:24:05.340Z,100986.97
2019-05-30T14:26:33.307Z,100996.66
2019-05-30T14:29:02.219Z,100994.98
2019-05-30T14:31:30.323Z,100997.04
2019-05-30T14:33:57.647Z,100992.41
2019-05-30T14:36:25.719Z,100991.89
2019-05-30T14:38:58.428Z,100994.84
2019-05-30T14:41:22.679Z,100998.36
2019-05-30T14:43:51.549Z,101002.02
2019-05-30T14:46:20.552Z,100989.25
2019-05-30T14:48:49.931Z,100989.22
2019-05-30T14:51:19.051Z,100990.34
2019-05-30T14:53:49.375Z,100993.27
2019-05-30T14:56:17.763Z,100990.45
2019-05-30T14:58:46.634Z,100990.81
2019-05-30T15:01:14.599Z,100988.75
2019-05-30T15:03:45.887Z,100994.24
2019-05-30T15:06:16.282Z,100989.56
2019-05-30T15:08:43.371Z,100992.22
2019-05-30T15:11:11.748Z,100987.95
2019-05-30T15:13:39.124Z,101000.60
2019-05-30T15:16:06.807Z,100996.87
2019-05-30T15:18:36.800Z,100995.69
2019-05-30T15:21:04.190Z,100992.42
2019-05-30T15:23:31.614Z,100987.99
2019-05-30T15:25:59.080Z,100992.88
2019-05-30T15:28:26.738Z,100998.38
2019-05-30T15:30:56.026Z,100989.24
2019-05-30T15:33:23.904Z,100995.81
2019-05-30T15:36:10.968Z,100993.05
2019-05-30T15:38:38.684Z,100992.48
2019-05-30T15:41:06.998Z,100995.51
2019-05-30T15:43:42.359Z,100994.76
2019-05-30T15:46:10.035Z,100995.80
2019-05-30T15:48:38.783Z,101003.14
2019-05-30T15:51:10.460Z,100995.02
2019-05-30T15:53:40.643Z,100993.39
2019-05-30T15:56:13.503Z,100989.80
2019-05-30T15:58:41.123Z,100989.59
2019-05-30T16:01:09.832Z,100992.98
2019-05-30T16:03:37.671Z,100985.82
2019-05-30T16:06:07.500Z,100987.44
2019-05-30T16:08:35.135Z,100994.61
2019-05-30T16:11:03.017Z,100988.70
2019-05-30T16:13:32.351Z,100987.92
2019-05-30T16:15:59.875Z,100983.97
2019-05-30T16:18:27.401Z,100993.75
2019-05-30T16:20:55.237Z,100995.16
2019-05-30T16:23:22.557Z,100990.48
2019-05-30T16:25:49.985Z,100984.91
2019-05-30T16:28:17.878Z,100990.89
2019-05-30T16:30:46.360Z,100990.17
2019-05-30T16:33:13.999Z,100983.93
2019-05-30T16:35:42.515Z,100984.35
2019-05-30T16:38:10.060Z,100973.06
2019-05-30T16:40:38.439Z,100976.95
2019-05-30T16:43:06.832Z,100975.52
2019-05-30T16:45:34.168Z,100984.52
2019-05-30T16:48:03.980Z,100981.56
2019-05-30T16:50:31.446Z,100981.52
2019-05-30T16:53:10.469Z,100977.70
2019-05-30T16:55:37.926Z,100971.47
2019-05-30T16:58:05.487Z,100968.81
2019-05-30T17:00:33.297Z,100972.55
2019-05-30T17:03:01.222Z,100955.17
2019-05-30T17:05:28.539Z,100953.05
2019-05-30T17:07:56.004Z,100957.24
2019-05-30T17:10:32.207Z,100950.17
2019-05-30T17:12:53.023Z,100955.97
2019-05-30T17:15:20.459Z,100957.64
2019-05-30T17:17:47.882Z,100957.66
2019-05-30T17:20:16.441Z,100960.14
2019-05-30T17:22:44.577Z,100962.14
2019-05-30T17:25:12.347Z,100963.69
2019-05-30T17:27:39.687Z,100962.27
2019-05-30T17:30:09.914Z,100959.34
2019-05-30T17:32:37.371Z,100953.64
2019-05-30T17:35:05.239Z,100947.37
2019-05-30T17:37:35.085Z,100947.81
2019-05-30T17:40:04.797Z,100943.34
2019-05-30T17:42:32.217Z,100943.97
2019-05-30T17:44:59.763Z,100943.71
2019-05-30T17:47:27.748Z,100942.16
2019-05-30T17:49:55.203Z,100954.03
2019-05-30T17:52:23.689Z,100949.71
2019-05-30T17:54:51.358Z,100956.53
2019-05-30T17:57:22.052Z,100959.85
2019-05-30T17:59:49.438Z,100958.33
2019-05-30T18:02:17.105Z,100963.17
2019-05-30T18:04:44.556Z,100958.99
2019-05-30T18:07:12.583Z,100965.13
2019-05-30T18:09:39.990Z,100965.45
2019-05-30T18:12:07.982Z,100970.71
2019-05-30T18:14:35.410Z,100963.81
2019-05-30T18:17:03.289Z,100964.65
2019-05-30T18:19:31.508Z,100974.45
2019-05-30T18:21:59.026Z,100965.50
2019-05-30T18:24:29.642Z,100977.07
2019-05-30T18:26:57.199Z,100976.88
2019-05-30T18:29:26.073Z,100974.95
2019-05-30T18:31:53.782Z,100972.98
2019-05-30T18:34:22.321Z,100975.86
2019-05-30T18:36:49.956Z,100971.42
2019-05-30T18:39:17.371Z,100968.80
2019-05-30T18:41:44.825Z,100966.37
2019-05-30T18:44:12.893Z,100968.53
2019-05-30T18:46:40.349Z,100965.51
2019-05-30T18:49:07.811Z,100969.15
2019-05-30T18:51:36.735Z,100970.40
2019-05-30T18:54:04.845Z,100972.05
2019-05-30T18:56:32.823Z,100976.31
2019-05-30T18:59:00.481Z,100973.96
2019-05-30T19:01:29.542Z,100971.88
2019-05-30T19:03:58.413Z,100972.33
2019-05-30T19:06:28.115Z,100970.55
2019-05-30T19:08:57.466Z,100975.91
2019-05-30T19:11:29.580Z,100973.72
2019-05-30T19:13:57.335Z,100969.06
2019-05-30T19:16:26.307Z,100972.92
2019-05-30T19:18:55.111Z,100981.42
2019-05-30T19:21:23.297Z,100979.74
2019-05-30T19:23:53.161Z,100978.44
2019-05-30T19:26:21.747Z,100981.46
2019-05-30T19:28:49.610Z,100980.08
2019-05-30T19:31:17.113Z,100982.67
2019-05-30T19:33:46.117Z,100984.49
2019-05-30T19:36:13.576Z,100985.73
2019-05-30T19:38:41.414Z,100987.53
2019-05-30T19:41:09.012Z,100983.20
2019-05-30T19:43:38.056Z,100987.22
2019-05-30T19:46:05.849Z,100988.48
2019-05-30T19:48:34.394Z,100989.30
2019-05-30T19:51:02.505Z,100995.90
2019-05-30T19:53:30.779Z,100993.16
2019-05-30T19:56:07.053Z,100997.66
2019-05-30T19:58:35.621Z,100998.83
2019-05-30T20:01:05.593Z,101009.24
2019-05-30T20:03:41.418Z,101009.13
2019-05-30T20:06:04.009Z,101013.48
2019-05-30T20:08:47.921Z,101011.72
2019-05-30T20:11:01.561Z,101011.64
2019-05-30T20:13:28.989Z,101015.19
2019-05-30T20:15:56.447Z,101015.45
2019-05-30T20:18:23.790Z,101009.81
2019-05-30T20:20:57.630Z,101011.34
2019-05-30T20:23:20.361Z,101016.69
2019-05-30T20:25:47.772Z,101015.61
2019-05-30T20:28:15.289Z,101018.48
2019-05-30T20:30:43.437Z,101021.03
2019-05-30T20:33:10.887Z,101021.19
2019-05-30T20:35:40.061Z,101021.78
2019-05-30T20:38:07.954Z,101019.87
2019-05-30T20:40:38.525Z,101024.17
2019-05-30T20:43:06.303Z,101021.55
2019-05-30T20:45:37.967Z,101027.23
2019-05-30T20:48:03.453Z,101024.89
2019-05-30T20:50:31.396Z,101025.34
2019-05-30T20:52:58.838Z,101024.10
2019-05-30T20:55:26.602Z,101025.41
2019-05-30T20:57:54.144Z,101031.39
2019-05-30T21:00:25.962Z,101029.19
2019-05-30T21:02:53.852Z,101030.56
2019-05-30T21:05:21.470Z,101033.70
2019-05-30T21:07:50.954Z,101036.52
2019-05-30T21:10:19.482Z,101039.17
2019-05-30T21:12:49.727Z,101038.16
2019-05-30T21:15:18.118Z,101043.55
2019-05-30T21:17:46.227Z,101045.45
2019-05-30T21:20:14.298Z,101045.00
2019-05-30T21:22:42.303Z,101044.15
2019-05-30T21:25:10.944Z,101050.17
2019-05-30T21:27:39.006Z,101048.97
2019-05-30T21:30:07.551Z,101052.75
2019-05-30T21:32:35.246Z,101053.84
2019-05-30T21:35:04.305Z,101057.77
2019-05-30T21:37:31.810Z,101049.86
2019-05-30T21:39:59.174Z,101053.23
2019-05-30T21:42:26.727Z,101050.83
2019-05-30T21:44:54.559Z,101054.56
2019-05-30T21:47:22.268Z,101052.09
2019-05-30T21:49:49.714Z,101057.78
2019-05-30T21:52:17.686Z,101054.61
2019-05-30T21:54:46.270Z,101059.48
2019-05-30T21:57:13.858Z,101056.92
2019-05-30T21:59:44.322Z,101057.22
2019-05-30T22:02:12.328Z,101058.73
2019-05-30T22:04:40.463Z,101059.47
2019-05-30T22:07:08.058Z,101055.17
2019-05-30T22:09:35.895Z,101060.78
2019-05-30T22:12:03.870Z,101063.48
2019-05-30T22:14:31.356Z,101058.17
2019-05-30T22:16:58.809Z,101060.12
2019-05-30T22:19:26.262Z,101055.34
2019-05-30T22:21:56.587Z,101059.63
2019-05-30T22:24:23.944Z,101059.89
2019-05-30T22:26:52.550Z,101059.19
2019-05-30T22:29:20.193Z,101061.24
2019-05-30T22:31:48.607Z,101060.34
2019-05-30T22:34:16.232Z,101059.92
2019-05-30T22:36:46.693Z,101053.91
2019-05-30T22:39:15.443Z,101061.98
2019-05-30T22:41:43.819Z,101049.31
2019-05-30T22:44:11.382Z,101056.40
2019-05-30T22:46:39.555Z,101057.16
2019-05-30T22:49:06.912Z,101049.73
2019-05-30T22:51:34.777Z,101049.05
2019-05-30T22:54:02.239Z,101049.86
2019-05-30T22:56:29.663Z,101048.97
2019-05-30T22:58:57.056Z,101047.54
2019-05-30T23:01:25.323Z,101050.47
2019-05-30T23:03:53.854Z,101048.10
2019-05-30T23:06:23.310Z,101043.09
2019-05-30T23:08:50.771Z,101042.77
2019-05-30T23:11:18.635Z,101043.84
2019-05-30T23:13:45.901Z,101041.62
2019-05-30T23:16:13.248Z,101036.35
2019-05-30T23:18:40.497Z,101033.53
2019-05-30T23:21:08.563Z,101034.77
2019-05-30T23:23:36.231Z,101035.58
2019-05-30T23:26:03.691Z,101033.11
2019-05-30T23:28:31.144Z,101039.41
2019-05-30T23:30:59.008Z,101040.73
2019-05-30T23:33:26.675Z,101037.40
2019-05-30T23:35:54.580Z,101033.30
2019-05-30T23:38:21.999Z,101032.06
2019-05-30T23:40:50.981Z,101033.72
2019-05-30T23:43:19.574Z,101042.12
2019-05-30T23:45:46.927Z,101040.56
2019-05-30T23:48:14.695Z,101039.47
2019-05-30T23:50:42.473Z,101034.88
2019-05-30T23:53:10.112Z,101034.23
2019-05-30T23:55:37.476Z,101025.07
2019-05-30T23:58:04.795Z,101020.70
